Time;durP1;ratioP1;P1;durP2;ratioP2;P2;SDS_P1;SDS_P2;PMS_P1;PMS_P2;Temp;Humidity;BMP_temperature;BMP_pressure;BME280_temperature;BME280_humidity;BME280_pressure;Samples;Min_cycle;Max_cycle;Signal;HPM_P1;HPM_P2
2022/08/26 00:00:52;;;;;;;1999.90;999.90;;;;;;;24.33;60.92;95176.13;5012359;28;20040;-73
2022/08/26 00:03:20;;;;;;;1999.90;999.90;;;;;;;24.27;60.91;95152.47;5028376;28;20076;-73
2022/08/26 00:05:45;;;;;;;1999.90;999.90;;;;;;;24.33;61.15;95169.94;5011801;28;20374;-73
2022/08/26 00:08:12;;;;;;;1999.90;999.90;;;;;;;24.31;61.06;95174.97;5029425;28;20036;-71
2022/08/26 00:10:39;;;;;;;1999.90;999.90;;;;;;;24.22;61.39;95161.78;5029414;28;20048;-72
2022/08/26 00:13:05;;;;;;;1999.90;999.90;;;;;;;24.25;61.31;95157.50;5011159;28;20052;-73
2022/08/26 00:15:31;;;;;;;1999.90;999.90;;;;;;;24.16;61.36;95152.50;5014129;28;20490;-72
2022/08/26 00:17:57;;;;;;;1999.90;999.90;;;;;;;24.15;61.33;95164.50;5029247;28;20056;-72
2022/08/26 00:20:26;;;;;;;1999.90;999.90;;;;;;;24.03;61.57;95152.09;5011434;28;20029;-72
2022/08/26 00:22:51;;;;;;;1999.90;999.90;;;;;;;23.93;61.98;95149.41;5028838;28;20029;-72
2022/08/26 00:25:17;;;;;;;1999.90;999.90;;;;;;;23.98;62.13;95162.59;5028499;28;20397;-72
2022/08/26 00:27:42;;;;;;;1999.90;999.90;;;;;;;24.02;62.07;95176.97;5011123;28;20082;-72
2022/08/26 00:30:12;;;;;;;1999.90;999.90;;;;;;;23.96;61.86;95165.72;5027958;28;20036;-72
2022/08/26 00:32:38;;;;;;;1999.90;999.90;;;;;;;23.76;62.07;95146.31;5009487;28;20036;-71
2022/08/26 00:35:04;;;;;;;1999.90;999.90;;;;;;;23.84;62.02;95169.56;5018534;28;20037;-71
2022/08/26 00:37:30;;;;;;;1999.90;999.90;;;;;;;23.70;62.43;95155.22;5028574;28;20033;-71
2022/08/26 00:39:56;;;;;;;1999.90;999.90;;;;;;;23.49;62.48;95136.94;5012127;28;20083;-71
2022/08/26 00:42:21;;;;;;;1999.90;999.90;;;;;;;23.48;62.65;95141.59;5019948;28;20030;-71
2022/08/26 00:44:46;;;;;;;1999.90;999.90;;;;;;;23.36;63.12;95128.41;5015953;28;20118;-72
2022/08/26 00:47:44;;;;;;;1999.90;999.90;;;;;;;23.53;63.42;95164.88;5010730;28;20120;-71
2022/08/26 00:50:14;;;;;;;1999.90;999.90;;;;;;;23.48;63.24;95159.84;5027649;28;20076;-72
2022/08/26 00:52:41;;;;;;;1999.90;999.90;;;;;;;23.37;63.43;95159.81;4995073;28;20030;-71
2022/08/26 00:55:14;;;;;;;1999.90;999.90;;;;;;;23.39;63.29;95157.50;5028174;28;20477;-71
2022/08/26 00:57:40;;;;;;;1999.90;999.90;;;;;;;23.34;63.70;95171.47;5026163;28;20498;-72
2022/08/26 01:00:12;;;;;;;1999.90;999.90;;;;;;;23.35;64.02;95170.31;5009832;28;20028;-70
2022/08/26 01:02:37;;;;;;;1999.90;999.90;;;;;;;23.23;63.91;95157.84;5009215;28;20022;-71
2022/08/26 01:05:05;;;;;;;1999.90;999.90;;;;;;;23.29;63.79;95172.63;5000167;28;20363;-71
2022/08/26 01:07:32;;;;;;;1999.90;999.90;;;;;;;23.24;64.06;95162.13;5028019;28;20037;-71
2022/08/26 01:10:05;;;;;;;1999.90;999.90;;;;;;;23.19;64.28;95159.03;5018995;28;20752;-70
2022/08/26 01:12:37;;;;;;;1999.90;999.90;;;;;;;23.23;64.36;95163.28;5017524;28;20027;-71
2022/08/26 01:15:04;;;;;;;1999.90;999.90;;;;;;;23.05;64.60;95143.47;5011824;28;20036;-70
2022/08/26 01:17:29;;;;;;;1999.90;999.90;;;;;;;23.16;64.58;95165.97;5032135;28;20033;-71
2022/08/26 01:20:05;;;;;;;1999.90;999.90;;;;;;;23.23;64.64;95168.69;5014575;28;20032;-72
2022/08/26 01:23:02;;;;;;;1999.90;999.90;;;;;;;23.19;64.47;95165.22;5032622;28;20021;-71
2022/08/26 01:25:31;;;;;;;1999.90;999.90;;;;;;;23.24;64.34;95169.50;4996029;28;20045;-71
2022/08/26 01:28:00;;;;;;;1999.90;999.90;;;;;;;23.20;64.43;95166.78;5031765;28;20405;-71
2022/08/26 01:30:28;;;;;;;1999.90;999.90;;;;;;;23.18;64.72;95150.09;5013361;28;20392;-72
2022/08/26 01:32:55;;;;;;;1999.90;999.90;;;;;;;23.08;64.73;95145.41;5014812;28;20022;-73
2022/08/26 01:35:21;;;;;;;1999.90;999.90;;;;;;;22.99;64.94;95137.66;5012241;28;20516;-71
2022/08/26 01:37:49;;;;;;;1999.90;999.90;;;;;;;23.13;65.12;95150.47;5032475;28;20029;-71
2022/08/26 01:40:19;;;;;;;1999.90;999.90;;;;;;;23.17;64.50;95164.03;5031870;28;20034;-72
2022/08/26 01:42:46;;;;;;;1999.90;999.90;;;;;;;23.11;64.96;95157.44;5031452;28;20026;-72
2022/08/26 01:45:17;;;;;;;1999.90;999.90;;;;;;;23.14;64.66;95165.59;5011998;28;20026;-71
2022/08/26 01:47:43;;;;;;;1999.90;999.90;;;;;;;23.14;65.21;95167.53;4998318;28;20036;-73
2022/08/26 01:50:14;;;;;;;1999.90;999.90;;;;;;;23.03;64.97;95154.72;5032404;28;20079;-72
2022/08/26 01:52:43;;;;;;;1999.90;999.90;;;;;;;23.12;64.71;95161.69;5013566;28;20033;-72
2022/08/26 01:55:12;;;;;;;1999.90;999.90;;;;;;;22.83;64.74;95121.69;5031532;28;20041;-71
2022/08/26 01:57:38;;;;;;;1999.90;999.90;;;;;;;23.08;64.97;95164.41;5030126;28;20025;-71
2022/08/26 02:00:09;;;;;;;1999.90;999.90;;;;;;;23.07;65.10;95165.56;5014389;28;20040;-72
2022/08/26 02:02:35;;;;;;;1999.90;999.90;;;;;;;22.92;64.92;95144.97;5014073;28;20060;-73
2022/08/26 02:05:05;;;;;;;1999.90;999.90;;;;;;;23.03;65.33;95164.78;5031371;28;20034;-72
2022/08/26 02:07:32;;;;;;;1999.90;999.90;;;;;;;22.86;65.49;95146.50;5013756;28;20054;-72
2022/08/26 02:09:57;;;;;;;1999.90;999.90;;;;;;;22.97;65.29;95166.31;5031907;28;20104;-73
2022/08/26 02:12:24;;;;;;;1999.90;999.90;;;;;;;22.89;65.62;95162.03;5031393;28;20103;-72
2022/08/26 02:14:53;;;;;;;1999.90;999.90;;;;;;;22.95;65.14;95165.94;5018547;28;20029;-72
2022/08/26 02:17:25;;;;;;;1999.90;999.90;;;;;;;22.96;65.28;95159.34;5030820;28;20029;-71
2022/08/26 02:19:50;;;;;;;1999.90;999.90;;;;;;;22.98;65.52;95163.25;5029936;28;20037;-72
2022/08/26 02:22:19;;;;;;;1999.90;999.90;;;;;;;23.00;65.30;95160.91;5000501;28;20034;-72
2022/08/26 02:24:48;;;;;;;1999.90;999.90;;;;;;;23.04;65.03;95167.13;5023067;28;20091;-73
2022/08/26 02:27:15;;;;;;;1999.90;999.90;;;;;;;22.89;65.33;95151.19;5026833;28;20022;-71
2022/08/26 02:29:46;;;;;;;1999.90;999.90;;;;;;;22.85;65.47;95148.44;5030596;28;20068;-71
2022/08/26 02:32:12;;;;;;;1999.90;999.90;;;;;;;22.93;65.58;95157.38;5030435;28;20036;-72
2022/08/26 02:34:37;;;;;;;1999.90;999.90;;;;;;;22.88;65.19;95153.13;5030666;28;20398;-71
2022/08/26 02:37:07;;;;;;;1999.90;999.90;;;;;;;22.86;65.14;95146.50;5013723;28;20057;-71
2022/08/26 02:39:35;;;;;;;1999.90;999.90;;;;;;;22.94;65.22;95159.72;5012123;28;20183;-72
2022/08/26 02:42:01;;;;;;;1999.90;999.90;;;;;;;22.70;65.35;95117.75;5013675;28;20045;-71
2022/08/26 02:44:26;;;;;;;1999.90;999.90;;;;;;;22.94;65.41;95156.25;5030210;28;20041;-71
2022/08/26 02:46:53;;;;;;;1999.90;999.90;;;;;;;22.93;65.53;95160.91;5029687;28;20179;-71
2022/08/26 02:49:19;;;;;;;1999.90;999.90;;;;;;;22.85;65.24;95148.44;5021553;28;20171;-70
2022/08/26 02:51:45;;;;;;;1999.90;999.90;;;;;;;22.88;65.34;95138.72;5031384;28;20108;-72
2022/08/26 02:54:12;;;;;;;1999.90;999.90;;;;;;;22.90;65.45;95147.31;5011736;28;20018;-71
2022/08/26 02:56:38;;;;;;;1999.90;999.90;;;;;;;22.90;65.24;95139.19;5012505;28;20116;-71
2022/08/26 02:59:04;;;;;;;1999.90;999.90;;;;;;;22.82;65.16;95138.31;5030481;28;20105;-73
2022/08/26 03:01:33;;;;;;;1999.90;999.90;;;;;;;22.72;65.62;95123.56;5029943;28;20033;-72
2022/08/26 03:04:00;;;;;;;1999.90;999.90;;;;;;;22.89;65.31;95154.66;5012216;28;20025;-72
2022/08/26 03:06:26;;;;;;;1999.90;999.90;;;;;;;22.73;65.67;95129.78;5013719;28;20957;-72
2022/08/26 03:08:51;;;;;;;1999.90;999.90;;;;;;;22.78;65.37;95145.69;5011117;28;20057;-72
2022/08/26 03:11:18;;;;;;;1999.90;999.90;;;;;;;22.64;65.59;95123.94;5030179;28;20544;-71
2022/08/26 03:13:43;;;;;;;1999.90;999.90;;;;;;;22.68;65.55;95132.88;5030227;28;20104;-71
2022/08/26 03:16:09;;;;;;;1999.90;999.90;;;;;;;22.69;65.29;95140.63;5029025;28;20104;-72
2022/08/26 03:18:34;;;;;;;1999.90;999.90;;;;;;;22.72;65.39;95147.19;5030873;28;20029;-72
2022/08/26 03:21:09;;;;;;;1999.90;999.90;;;;;;;22.50;65.43;95125.44;5013048;28;20638;-72
2022/08/26 03:23:35;;;;;;;1999.90;999.90;;;;;;;22.44;65.44;95115.34;5011954;28;20025;-72
2022/08/26 03:26:01;;;;;;;1999.90;999.90;;;;;;;22.29;65.17;95100.94;5008068;28;20076;-72
2022/08/26 03:28:26;;;;;;;1999.90;999.90;;;;;;;22.52;65.42;95142.09;5002976;28;20028;-72
2022/08/26 03:30:52;;;;;;;1999.90;999.90;;;;;;;22.52;65.08;95135.88;5025414;28;20037;-72
2022/08/26 03:33:18;;;;;;;1999.90;999.90;;;;;;;22.50;65.06;95133.56;5030759;28;20411;-71
2022/08/26 03:35:46;;;;;;;1999.90;999.90;;;;;;;22.53;65.34;95143.66;5025456;28;20372;-72
2022/08/26 03:38:12;;;;;;;1999.90;999.90;;;;;;;22.58;65.03;95137.88;5014760;28;20017;-72
2022/08/26 03:40:39;;;;;;;1999.90;999.90;;;;;;;22.48;64.90;95135.13;5012702;28;20032;-72
2022/08/26 03:43:08;;;;;;;1999.90;999.90;;;;;;;22.60;65.10;95152.97;5030093;28;20057;-72
2022/08/26 03:45:35;;;;;;;1999.90;999.90;;;;;;;22.49;64.82;95140.16;5027393;28;20029;-72
2022/08/26 03:48:01;;;;;;;1999.90;999.90;;;;;;;22.50;64.76;95144.41;5025027;28;20026;-72
2022/08/26 03:50:27;;;;;;;1999.90;999.90;;;;;;;22.41;64.52;95121.50;4992865;28;20029;-72
2022/08/26 03:52:54;;;;;;;1999.90;999.90;;;;;;;22.51;64.98;95137.03;5011435;28;20026;-72
2022/08/26 03:55:20;;;;;;;1999.90;999.90;;;;;;;22.57;64.79;95144.44;5028577;28;20055;-71
2022/08/26 03:57:46;;;;;;;1999.90;999.90;;;;;;;22.58;64.33;95139.81;5029648;28;20014;-72
2022/08/26 04:00:14;;;;;;;1999.90;999.90;;;;;;;22.57;64.35;95141.75;5010947;28;20028;-72
2022/08/26 04:02:42;;;;;;;1999.90;999.90;;;;;;;22.40;64.44;95109.91;5009911;28;20026;-72
2022/08/26 04:05:08;;;;;;;1999.90;999.90;;;;;;;22.59;64.47;95130.50;5010285;28;20109;-72
2022/08/26 04:07:34;;;;;;;1999.90;999.90;;;;;;;22.60;64.18;95134.00;5009769;28;20057;-71
2022/08/26 04:09:59;;;;;;;1999.90;999.90;;;;;;;22.61;64.34;95122.00;5029706;28;20052;-71
2022/08/26 04:12:25;;;;;;;1999.90;999.90;;;;;;;22.51;64.27;95104.53;5012134;28;20231;-72
2022/08/26 04:14:53;;;;;;;1999.90;999.90;;;;;;;22.60;64.27;95115.00;5027428;28;20457;-72
2022/08/26 04:17:19;;;;;;;1999.90;999.90;;;;;;;22.73;63.87;95130.56;5027895;28;20405;-72
2022/08/26 04:19:44;;;;;;;1999.90;999.90;;;;;;;22.72;63.67;95126.28;5029764;28;20060;-72
2022/08/26 04:22:10;;;;;;;1999.90;999.90;;;;;;;22.69;63.80;95113.50;5010411;28;20053;-71
2022/08/26 04:24:37;;;;;;;1999.90;999.90;;;;;;;22.83;63.40;95126.34;5028675;28;20048;-72
2022/08/26 04:27:03;;;;;;;1999.90;999.90;;;;;;;22.72;63.78;95112.72;5029932;28;20109;-73
2022/08/26 04:29:28;;;;;;;1999.90;999.90;;;;;;;22.78;63.62;95119.34;5029125;28;20108;-71
2022/08/26 04:31:54;;;;;;;1999.90;999.90;;;;;;;22.83;63.54;95108.13;5010468;28;20072;-71
2022/08/26 04:34:21;;;;;;;1999.90;999.90;;;;;;;22.98;62.75;95130.69;5028398;28;20061;-72
2022/08/26 04:36:46;;;;;;;1999.90;999.90;;;;;;;22.93;63.05;95117.50;5028384;28;20297;-72
2022/08/26 04:39:15;;;;;;;1999.90;999.90;;;;;;;23.07;62.48;95130.28;5027310;28;20526;-72
2022/08/26 04:41:42;;;;;;;1999.90;999.90;;;;;;;23.21;62.11;95135.75;5028587;28;20029;-74
2022/08/26 04:44:08;;;;;;;1999.90;999.90;;;;;;;23.09;62.02;95114.44;5029251;28;20024;-74
2022/08/26 04:46:34;;;;;;;1999.90;999.90;;;;;;;23.11;62.21;95117.53;5017598;28;20025;-73
2022/08/26 04:48:59;;;;;;;1999.90;999.90;;;;;;;23.28;62.07;95141.19;5029143;28;20036;-74
2022/08/26 04:51:27;;;;;;;1999.90;999.90;;;;;;;23.40;61.97;95142.00;5033152;28;20029;-74
2022/08/26 04:53:58;;;;;;;1999.90;999.90;;;;;;;23.49;61.47;95126.88;5032532;28;20028;-76
2022/08/26 04:56:25;;;;;;;1999.90;999.90;;;;;;;23.57;61.44;95135.81;5033103;28;20033;-76
2022/08/26 04:58:51;;;;;;;1999.90;999.90;;;;;;;23.61;60.94;95125.72;5028171;28;20371;-75
2022/08/26 05:01:20;;;;;;;1999.90;999.90;;;;;;;23.66;60.63;95140.88;5011865;28;20026;-76
2022/08/26 05:03:46;;;;;;;1999.90;999.90;;;;;;;23.69;60.71;95132.72;5015972;28;20022;-77
2022/08/26 05:06:13;;;;;;;1999.90;999.90;;;;;;;23.73;60.58;95128.06;5014567;28;20030;-76
2022/08/26 05:08:38;;;;;;;1999.90;999.90;;;;;;;23.77;60.39;95131.56;5024032;28;20026;-78
2022/08/26 05:11:05;;;;;;;1999.90;999.90;;;;;;;23.45;60.52;95079.97;5030861;28;20029;-76
2022/08/26 05:13:31;;;;;;;1999.90;999.90;;;;;;;23.75;60.12;95123.03;5030892;28;20017;-73
2022/08/26 05:16:05;;;;;;;1999.90;999.90;;;;;;;23.55;59.76;95079.19;5016372;28;20424;-71
2022/08/26 05:18:32;;;;;;;1999.90;999.90;;;;;;;23.93;59.72;95130.38;5031227;28;20093;-71
2022/08/26 05:20:59;;;;;;;1999.90;999.90;;;;;;;23.83;59.42;95104.78;5031776;28;20052;-71
2022/08/26 05:23:25;;;;;;;1999.90;999.90;;;;;;;23.86;59.20;95107.50;5013915;28;20037;-72
2022/08/26 05:25:53;;;;;;;1999.90;999.90;;;;;;;23.99;59.01;95121.44;5032608;28;20022;-71
2022/08/26 05:28:19;;;;;;;1999.90;999.90;;;;;;;23.92;59.07;95102.44;5032041;28;20533;-73
2022/08/26 05:30:44;;;;;;;1999.90;999.90;;;;;;;24.11;58.88;95123.00;5027374;28;20108;-71
2022/08/26 05:33:10;;;;;;;1999.90;999.90;;;;;;;24.15;58.71;95107.44;5014679;28;20037;-72
2022/08/26 05:35:37;;;;;;;1999.90;999.90;;;;;;;24.59;58.42;95163.28;5031638;28;20040;-71
2022/08/26 05:38:06;;;;;;;1999.90;999.90;;;;;;;24.58;58.11;95148.16;5014201;28;20037;-72
2022/08/26 05:40:37;;;;;;;1999.90;999.90;;;;;;;24.62;57.60;95166.00;5031779;28;20026;-71
2022/08/26 05:43:09;;;;;;;1999.90;999.90;;;;;;;24.58;57.66;95164.47;5030545;28;20021;-71
2022/08/26 05:45:34;;;;;;;1999.90;999.90;;;;;;;24.69;57.92;95173.34;5029804;28;20363;-71
2022/08/26 05:48:00;;;;;;;1999.90;999.90;;;;;;;24.75;57.72;95174.50;5014104;28;20040;-71
2022/08/26 05:50:25;;;;;;;1999.90;999.90;;;;;;;24.69;57.55;95158.97;5030764;28;20057;-71
2022/08/26 05:52:51;;;;;;;1999.90;999.90;;;;;;;24.77;57.79;95171.38;5031244;28;20029;-71
2022/08/26 05:55:17;;;;;;;1999.90;999.90;;;;;;;24.77;57.70;95165.94;5014693;28;20408;-71
2022/08/26 05:57:43;;;;;;;1999.90;999.90;;;;;;;24.78;57.53;95173.72;5007362;28;20129;-71
2022/08/26 06:00:10;;;;;;;1999.90;999.90;;;;;;;24.51;57.81;95167.97;5007465;28;20058;-73
2022/08/26 06:02:35;;;;;;;1999.90;999.90;;;;;;;24.15;59.17;95172.66;5013954;28;20021;-71
2022/08/26 06:05:01;;;;;;;1999.90;999.90;;;;;;;24.03;60.06;95175.78;5032735;28;20037;-71
2022/08/26 06:10:13;;;;;;;1999.90;999.90;;;;;;;23.83;60.57;95178.91;5031601;28;20036;-73
2022/08/26 06:12:39;;;;;;;1999.90;999.90;;;;;;;24.17;59.81;95169.56;5032088;28;20029;-73
2022/08/26 06:15:05;;;;;;;1999.90;999.90;;;;;;;23.90;59.61;95178.09;5029355;28;20071;-72
2022/08/26 06:17:31;;;;;;;1999.90;999.90;;;;;;;23.83;60.45;95173.47;5012688;28;20025;-77
2022/08/26 06:19:57;;;;;;;1999.90;999.90;;;;;;;24.22;59.13;95174.63;5030913;28;20100;-74
2022/08/26 06:27:50;;;;;;;1999.90;999.90;;;;;;;24.23;58.68;95162.56;5032075;28;20040;-72
2022/08/26 06:30:16;;;;;;;1999.90;999.90;;;;;;;24.52;58.49;95174.19;5030068;28;20030;-75
2022/08/26 06:32:41;;;;;;;1999.90;999.90;;;;;;;24.62;57.55;95146.19;5030198;28;20037;-73
2022/08/26 06:35:07;;;;;;;1999.90;999.90;;;;;;;24.97;57.20;95168.97;5031936;28;20021;-73
2022/08/26 06:37:32;;;;;;;1999.90;999.90;;;;;;;24.89;56.60;95166.28;5030899;28;20029;-71
2022/08/26 06:39:57;;;;;;;1999.90;999.90;;;;;;;24.90;56.69;95172.50;5014066;28;20100;-74
2022/08/26 06:42:23;;;;;;;1999.90;999.90;;;;;;;25.06;56.65;95174.75;5031231;28;20049;-76
2022/08/26 06:44:48;;;;;;;1999.90;999.90;;;;;;;25.25;55.98;95168.09;5031576;28;20474;-74
2022/08/26 06:47:13;;;;;;;1999.90;999.90;;;;;;;25.40;55.96;95178.50;5031159;28;20071;-74
2022/08/26 06:49:39;;;;;;;1999.90;999.90;;;;;;;25.56;55.10;95185.41;5031512;28;20083;-74
2022/08/26 06:52:05;;;;;;;1999.90;999.90;;;;;;;25.56;54.68;95180.72;5031098;28;20029;-75
2022/08/26 06:54:30;;;;;;;1999.90;999.90;;;;;;;25.47;54.73;95185.06;5031189;28;20114;-74
2022/08/26 06:56:56;;;;;;;1999.90;999.90;;;;;;;25.32;54.91;95170.75;5032092;28;20466;-77
2022/08/26 06:59:22;;;;;;;1999.90;999.90;;;;;;;25.22;55.06;95190.66;5013084;28;20048;-75
2022/08/26 07:01:48;;;;;;;1999.90;999.90;;;;;;;25.13;55.57;95180.97;5030622;28;20085;-72
2022/08/26 07:04:15;;;;;;;1999.90;999.90;;;;;;;24.69;56.66;95183.47;5031656;28;20029;-72
2022/08/26 07:06:45;;;;;;;1999.90;999.90;;;;;;;24.65;56.63;95178.03;5029304;28;20108;-74
2022/08/26 07:09:11;;;;;;;1999.90;999.90;;;;;;;24.60;56.81;95175.72;5031745;28;20083;-73
2022/08/26 07:11:37;;;;;;;1999.90;999.90;;;;;;;24.88;55.84;95185.72;5030364;28;20037;-75
2022/08/26 07:14:03;;;;;;;1999.90;999.90;;;;;;;24.24;56.94;95185.84;5007701;28;20549;-74
2022/08/26 07:16:29;;;;;;;1999.90;999.90;;;;;;;24.59;56.74;95191.25;5024983;28;20033;-73
2022/08/26 07:18:56;;;;;;;1999.90;999.90;;;;;;;24.74;55.84;95186.56;5022174;28;20463;-72
2022/08/26 07:21:23;;;;;;;1999.90;999.90;;;;;;;24.18;56.75;95193.63;4996796;28;20100;-73
2022/08/26 07:23:49;;;;;;;1999.90;999.90;;;;;;;24.33;56.28;95206.03;5011265;28;20535;-72
2022/08/26 07:26:20;;;;;;;1999.90;999.90;;;;;;;24.35;55.77;95195.56;5012703;28;20140;-73
2022/08/26 07:28:47;;;;;;;1999.90;999.90;;;;;;;24.59;55.05;95185.03;5011866;28;20028;-73
2022/08/26 07:31:14;;;;;;;1999.90;999.90;;;;;;;24.99;54.62;95191.13;5030519;28;20029;-73
2022/08/26 07:33:40;;;;;;;1999.90;999.90;;;;;;;25.48;53.19;95195.56;5029540;28;20026;-70
2022/08/26 07:36:06;;;;;;;1999.90;999.90;;;;;;;25.54;52.64;95193.19;5030699;28;20052;-73
2022/08/26 07:38:33;;;;;;;1999.90;999.90;;;;;;;25.76;52.63;95202.81;5030653;28;20025;-74
2022/08/26 07:40:58;;;;;;;1999.90;999.90;;;;;;;26.01;51.21;95199.91;5030805;28;20025;-74
2022/08/26 07:43:23;;;;;;;1999.90;999.90;;;;;;;25.36;52.08;95198.75;5012353;28;20033;-73
2022/08/26 07:45:49;;;;;;;1999.90;999.90;;;;;;;25.02;52.04;95207.41;5030497;28;20029;-73
2022/08/26 07:48:16;;;;;;;1999.90;999.90;;;;;;;24.91;51.97;95206.69;5029729;28;20032;-73
2022/08/26 07:50:41;;;;;;;1999.90;999.90;;;;;;;25.75;51.31;95203.97;5013022;28;20029;-73
2022/08/26 07:53:07;;;;;;;1999.90;999.90;;;;;;;25.97;48.70;95203.81;5012929;28;20033;-74
2022/08/26 07:55:33;;;;;;;1999.90;999.90;;;;;;;25.27;49.90;95207.34;5030135;28;20026;-74
2022/08/26 07:57:58;;;;;;;1999.90;999.90;;;;;;;25.87;47.95;95203.50;5012730;28;20049;-74
2022/08/26 08:00:24;;;;;;;1999.90;999.90;;;;;;;26.01;47.75;95204.56;5030279;28;20108;-74
2022/08/26 08:02:50;;;;;;;1999.90;999.90;;;;;;;25.16;48.46;95193.00;5011101;28;20096;-73
2022/08/26 08:05:18;;;;;;;1999.90;999.90;;;;;;;24.63;49.27;95196.69;5017109;28;20402;-73
2022/08/26 08:07:43;;;;;;;1999.90;999.90;;;;;;;25.50;47.48;95192.44;5030292;28;20048;-75
2022/08/26 08:10:21;;;;;;;1999.90;999.90;;;;;;;25.54;47.72;95198.63;5007012;28;20459;-75
2022/08/26 08:12:47;;;;;;;1999.90;999.90;;;;;;;25.44;47.22;95196.75;5012240;28;20071;-74
2022/08/26 08:15:14;;;;;;;1999.90;999.90;;;;;;;26.11;45.94;95200.97;5029617;28;20033;-73
2022/08/26 08:17:42;;;;;;;1999.90;999.90;;;;;;;25.65;45.28;95204.81;5029302;28;20029;-74
2022/08/26 08:20:08;;;;;;;1999.90;999.90;;;;;;;26.06;44.71;95202.19;5030011;28;20025;-73
2022/08/26 08:22:34;;;;;;;1999.90;999.90;;;;;;;26.28;43.80;95199.28;5018306;28;20060;-73
2022/08/26 08:25:00;;;;;;;1999.90;999.90;;;;;;;26.19;44.18;95199.72;4992167;28;20057;-72
2022/08/26 08:27:25;;;;;;;1999.90;999.90;;;;;;;26.92;43.38;95193.16;5010273;28;20105;-72
2022/08/26 08:29:55;;;;;;;1999.90;999.90;;;;;;;27.83;41.33;95186.91;5027426;28;20112;-73
2022/08/26 08:32:22;;;;;;;1999.90;999.90;;;;;;;27.09;41.41;95188.69;5028691;28;20573;-74
2022/08/26 08:34:47;;;;;;;1999.90;999.90;;;;;;;26.83;42.11;95188.19;4999540;28;20034;-74
2022/08/26 08:37:13;;;;;;;1999.90;999.90;;;;;;;27.18;41.46;95195.22;5030013;28;20026;-75
2022/08/26 08:39:38;;;;;;;1999.90;999.90;;;;;;;27.80;40.84;95190.47;5022516;28;20431;-74
2022/08/26 08:42:09;;;;;;;1999.90;999.90;;;;;;;28.32;40.69;95197.44;5009905;28;20098;-73
2022/08/26 08:44:38;;;;;;;1999.90;999.90;;;;;;;28.99;39.92;95188.00;5009949;28;20026;-74
2022/08/26 08:47:21;;;;;;;1999.90;999.90;;;;;;;29.59;39.09;95173.47;4992822;28;20030;-73
2022/08/26 08:49:46;;;;;;;1999.90;999.90;;;;;;;29.05;39.78;95188.28;5027868;28;20039;-75
2022/08/26 08:52:33;;;;;;;1999.90;999.90;;;;;;;28.43;40.05;95182.41;5028885;28;20100;-73
2022/08/26 08:55:00;;;;;;;1999.90;999.90;;;;;;;29.56;38.59;95193.50;5011935;28;20390;-74
2022/08/26 08:57:37;;;;;;;1999.90;999.90;;;;;;;29.45;38.59;95166.31;5029464;28;20029;-74
2022/08/26 09:00:16;;;;;;;1999.90;999.90;;;;;;;29.14;39.17;95179.50;5029522;28;20029;-76
2022/08/26 09:02:51;;;;;;;1999.90;999.90;;;;;;;29.60;39.15;95186.00;5011127;28;20026;-72
2022/08/26 09:05:26;;;;;;;1999.90;999.90;;;;;;;28.79;40.19;95192.69;5028350;28;20449;-74
2022/08/26 09:07:57;;;;;;;1999.90;999.90;;;;;;;30.18;38.35;95186.19;5029559;28;20017;-74
2022/08/26 09:10:34;;;;;;;1999.90;999.90;;;;;;;30.96;36.90;95188.88;5029635;28;20022;-74
2022/08/26 09:13:01;;;;;;;1999.90;999.90;;;;;;;31.41;36.27;95185.25;5028174;28;20033;-76
2022/08/26 09:15:41;;;;;;;1999.90;999.90;;;;;;;31.84;35.29;95171.00;5029557;28;20091;-74
2022/08/26 09:18:36;;;;;;;1999.90;999.90;;;;;;;32.28;35.47;95171.13;5024925;28;20068;-76
2022/08/26 09:21:08;;;;;;;1999.90;999.90;;;;;;;32.03;34.45;95149.94;5011903;28;20567;-75
2022/08/26 09:23:37;;;;;;;1999.90;999.90;;;;;;;29.15;39.47;95148.19;5011438;28;20028;-76
2022/08/26 09:26:16;;;;;;;1999.90;999.90;;;;;;;30.95;37.31;95148.88;5011949;28;20121;-75
2022/08/26 09:29:07;;;;;;;1999.90;999.90;;;;;;;32.10;35.90;95149.72;5029254;28;20482;-75
2022/08/26 09:31:34;;;;;;;;;;;;;;;32.91;34.45;95175.66;5029669;28;20029;-76
2022/08/26 09:34:18;;;;;;;1999.90;999.90;;;;;;;32.76;33.22;95147.84;5020357;28;20008;-74
2022/08/26 09:36:55;;;;;;;1999.90;999.90;;;;;;;32.76;33.51;95160.84;5031806;28;20475;-75
2022/08/26 09:39:24;;;;;;;1999.90;999.90;;;;;;;32.37;34.42;95170.47;5032648;28;20025;-74
2022/08/26 09:42:12;;;;;;;1999.90;999.90;;;;;;;32.73;33.98;95145.97;5031594;28;20278;-75
2022/08/26 09:44:51;;;;;;;1999.90;999.90;;;;;;;33.23;32.53;95170.97;5006150;28;20478;-75
2022/08/26 09:47:21;;;;;;;1999.90;999.90;;;;;;;33.18;32.34;95144.00;4995446;28;20049;-74
2022/08/26 09:49:58;;;;;;;1999.90;999.90;;;;;;;33.19;32.44;95112.47;5013660;28;20022;-74
2022/08/26 09:52:26;;;;;;;1999.90;999.90;;;;;;;33.64;32.05;95158.78;5032310;28;20083;-74
2022/08/26 09:55:23;;;;;;;1999.90;999.90;;;;;;;30.50;37.11;95161.44;5032457;28;20393;-74
2022/08/26 09:57:54;;;;;;;1999.90;999.90;;;;;;;31.35;35.27;95130.06;4982134;28;20113;-74
2022/08/26 10:00:34;;;;;;;1999.90;999.90;;;;;;;31.89;35.02;95150.38;5031236;28;20030;-73
2022/08/26 10:03:03;;;;;;;1999.90;999.90;;;;;;;30.90;36.44;95147.44;5014380;28;20029;-73
2022/08/26 10:05:30;;;;;;;1999.90;999.90;;;;;;;30.83;36.89;95131.16;5032145;28;20026;-74
2022/08/26 10:07:57;;;;;;;1999.90;999.90;;;;;;;30.91;36.08;95096.00;5032478;28;20474;-73
2022/08/26 10:10:31;;;;;;;1999.90;999.90;;;;;;;30.01;38.99;95142.28;5032194;28;20383;-73
2022/08/26 10:13:08;;;;;;;1999.90;999.90;;;;;;;30.11;38.21;95079.38;5031909;28;20026;-73
2022/08/26 10:16:20;;;;;;;1999.90;999.90;;;;;;;29.58;38.82;95128.06;5031976;28;20156;-72
2022/08/26 10:18:54;;;;;;;1999.90;999.90;;;;;;;29.79;38.36;95086.44;4991339;28;20045;-72
2022/08/26 10:21:58;;;;;;;1999.90;999.90;;;;;;;29.78;38.25;95123.28;5031947;28;20552;-73
2022/08/26 10:24:34;;;;;;;1999.90;999.90;;;;;;;30.00;37.79;95099.63;5030214;28;20115;-73
2022/08/26 10:27:19;;;;;;;1999.90;999.90;;;;;;;29.24;38.90;95088.13;5032108;28;20021;-73
2022/08/26 10:29:47;;;;;;;1999.90;999.90;;;;;;;29.85;38.08;95114.13;5032008;28;20057;-74
2022/08/26 10:32:41;;;;;;;1999.90;999.90;;;;;;;30.41;36.76;95084.47;5030731;28;20029;-73
2022/08/26 10:35:09;;;;;;;1999.90;999.90;;;;;;;31.08;35.94;95055.50;5023523;28;20045;-73
2022/08/26 10:37:40;;;;;;;1999.90;999.90;;;;;;;31.56;33.85;95090.91;5001393;28;20014;-73
2022/08/26 10:40:22;;;;;;;1999.90;999.90;;;;;;;32.46;32.57;95096.22;5014109;28;20033;-73
2022/08/26 10:42:51;;;;;;;1999.90;999.90;;;;;;;32.94;32.32;95092.13;5013831;28;20026;-73
2022/08/26 10:45:24;;;;;;;1999.90;999.90;;;;;;;33.17;31.32;95087.31;5031795;28;20440;-73
2022/08/26 10:47:58;;;;;;;1999.90;999.90;;;;;;;33.68;31.16;95089.69;5031426;28;20025;-73
2022/08/26 10:50:29;;;;;;;1999.90;999.90;;;;;;;33.41;30.58;95068.28;5030672;28;20552;-73
2022/08/26 10:53:00;;;;;;;;;;;;;;;33.90;29.48;95087.59;5031532;28;20083;-73
2022/08/26 10:56:00;;;;;;;1999.90;999.90;;;;;;;34.08;29.56;95076.59;5031431;28;19952;-72
2022/08/26 10:58:48;;;;;;;1999.90;999.90;;;;;;;34.10;28.07;95082.44;5014042;28;20913;-72
2022/08/26 11:04:24;;;;;;;1999.90;999.90;;;;;;;32.86;31.93;95077.03;5030527;28;20107;-72
2022/08/26 11:07:31;;;;;;;1999.90;999.90;;;;;;;31.81;33.82;95076.38;5031170;28;20758;-72
2022/08/26 11:09:59;;;;;;;1999.90;999.90;;;;;;;30.59;35.75;95031.78;5031159;28;20048;-72
2022/08/26 11:12:37;;;;;;;1999.90;999.90;;;;;;;30.32;36.69;95086.28;5030880;28;20025;-71
2022/08/26 11:15:28;;;;;;;1999.90;999.90;;;;;;;29.39;38.46;95083.84;5030966;28;20413;-72